West Vancouver, British Columbia

9:19 AM PDT on August 25, 2016 (GMT -0700)
Ambleside | | Change Station

Elev 10 ft 49.33 °N, 123.15 °W | Updated 1 minute ago

Partly Cloudy
Partly Cloudy
66.7 °F
Feels Like 66.7 °F
N
2.0
Wind Variable Wind from East
Gusts 5.0 mph

Today
High -- | Low -- °F
--% Chance of Precip.
Yesterday
High -- | Low -- °F
Precip. -- in
Pressure 30.14 in
Visibility 30.0 miles
Clouds Few 25000 ft
Dew Point 57 °F
Humidity 70%
Rainfall 0.00 in
Snow Depth Not available.
6:19 AM 8:08 PM
Last Quarter, 44% visible
METAR CYVR 251600Z 31010KT 30SM FEW250 20/15 A3014 RMK CI2 CONTRAILS SLP207 DENSITY ALT 300FT
Pressure 30.14 in
Visibility 30.0 miles
Clouds Few 25000 ft
Dew Point 57 °F
Humidity 70%
Rainfall 0.00 in
Snow Depth Not available.
6:19 AM 8:08 PM
Last Quarter, 44% visible
METAR CYVR 251600Z 31010KT 30SM FEW250 20/15 A3014 RMK CI2 CONTRAILS SLP207 DENSITY ALT 300FT

10-Day Weather Forecast

Almanac

Astronomy

Aug. 25, 2016 Rise Set
Actual Time
Civil Twilight
Nautical Twilight
Astronomical Twilight
Moon
Length of Visible Light
Length of Day
Tomorrow will be .
, % of the Moon is Illuminated

Today's Extremes

Country Highs Country Lows

Community

WunderPhotos

Upload Photos

1,934,867 photos uploaded!

WunderBlog® & News

Nearby

Air Quality

  Air Quality AQ Index Pollutant
Not available.

Snow Depth

Station Depth Elevation

Earthquake Activity

City Distance Mag. Time & Date
Minimum magnitude displayed is 2.5.

Coastal Water Temperatures

Place Temperature

Stations

Nearby Weather Stations

Station Location Temp. Windchill Dew Point Humidity Wind Precip. Elev Updated Type
                   

Watches & Warnings

There are currently no watches in effect.